Time;durP1;ratioP1;P1;durP2;ratioP2;P2;SDS_P1;SDS_P2;PMS_P1;PMS_P2;Temp;Humidity;BMP_temperature;BMP_pressure;BME280_temperature;BME280_humidity;BME280_pressure;Samples;Min_cycle;Max_cycle;Signal;HPM_P1;HPM_P2
2023/04/29 00:03:27;;;;;;;0.52;0.52;;;;;;;13.21;100.00;101347.88;10354304;28;20140;-81
2023/04/29 00:08:30;;;;;;;1.83;1.73;;;;;;;13.24;100.00;101350.53;10348414;28;20464;-81
2023/04/29 00:13:31;;;;;;;1.70;1.30;;;;;;;12.94;100.00;101361.91;10354666;28;20049;-82
2023/04/29 00:18:33;;;;;;;0.77;0.73;;;;;;;13.02;100.00;101354.34;10356016;28;20584;-82
2023/04/29 00:23:34;;;;;;;1.77;1.55;;;;;;;12.89;100.00;101360.03;10353339;28;20042;-81
2023/04/29 00:28:36;;;;;;;1.27;1.10;;;;;;;12.75;100.00;101362.31;10354518;28;20105;-81
2023/04/29 00:33:39;;;;;;;1.92;1.73;;;;;;;13.13;100.00;101372.69;10334907;28;20104;-82
2023/04/29 00:38:41;;;;;;;2.08;1.42;;;;;;;12.98;100.00;101376.69;10357578;28;20515;-81
2023/04/29 00:43:42;;;;;;;1.65;0.70;;;;;;;12.85;100.00;101384.97;10367358;28;20042;-81
2023/04/29 00:48:44;;;;;;;3.88;1.40;;;;;;;12.76;100.00;101388.22;10365293;28;20065;-82
2023/04/29 00:53:46;;;;;;;1.88;1.30;;;;;;;12.99;100.00;101393.94;10350536;28;20076;-81
2023/04/29 00:58:51;;;;;;;1.50;0.98;;;;;;;12.84;100.00;101394.44;10334789;28;20456;-82
2023/04/29 01:03:53;;;;;;;11.02;1.27;;;;;;;12.68;100.00;101395.78;10350227;28;20050;-82
2023/04/29 01:09:20;;;;;;;3.83;1.30;;;;;;;12.86;100.00;101407.41;10350195;28;20081;-81
2023/04/29 01:14:24;;;;;;;2.08;1.75;;;;;;;13.23;100.00;101412.59;10367441;28;20037;-82
2023/04/29 01:19:39;;;;;;;1.95;0.98;;;;;;;12.79;100.00;101414.16;10359112;28;20580;-81
2023/04/29 01:24:40;;;;;;;0.38;0.38;;;;;;;12.91;100.00;101416.16;10375773;28;20050;-81
2023/04/29 01:30:01;;;;;;;2.60;1.73;;;;;;;12.79;100.00;101415.84;10359994;28;20436;-82
2023/04/29 01:35:09;;;;;;;1.30;0.95;;;;;;;12.88;100.00;101426.44;10362035;28;20046;-81
2023/04/29 01:40:18;;;;;;;5.22;1.58;;;;;;;12.80;100.00;101433.13;10344388;28;20050;-82
2023/04/29 01:45:43;;;;;;;3.20;1.92;;;;;;;12.66;100.00;101431.06;10360255;28;20061;-81
2023/04/29 01:50:46;;;;;;;2.33;1.27;;;;;;;12.48;100.00;101435.72;10362638;28;20045;-81
2023/04/29 01:55:50;;;;;;;0.43;0.43;;;;;;;12.89;100.00;101435.94;10342067;28;20050;-82
2023/04/29 02:00:59;;;;;;;0.73;0.73;;;;;;;12.50;100.00;101432.38;10340621;28;20060;-82
2023/04/29 02:06:05;;;;;;;3.22;1.42;;;;;;;12.52;100.00;101440.16;10361514;28;20046;-81
2023/04/29 02:11:09;;;;;;;1.90;1.20;;;;;;;12.69;100.00;101449.25;10342869;28;20050;-82
2023/04/29 02:16:14;;;;;;;1.92;1.27;;;;;;;13.08;100.00;101455.38;10348845;28;20046;-81
2023/04/29 02:21:26;;;;;;;3.83;1.77;;;;;;;12.53;100.00;101465.19;10344432;28;20050;-81
2023/04/29 02:26:27;;;;;;;1.63;1.52;;;;;;;12.61;100.00;101468.84;10356286;28;20042;-81
2023/04/29 02:31:30;;;;;;;4.68;1.77;;;;;;;12.68;100.00;101475.94;10387771;28;20049;-81
2023/04/29 02:36:31;;;;;;;0.93;0.70;;;;;;;12.65;100.00;101481.00;10372959;28;20042;-82
2023/04/29 02:41:33;;;;;;;4.85;1.60;;;;;;;12.43;100.00;101494.19;10361429;28;20125;-81
2023/04/29 02:46:35;;;;;;;3.50;1.83;;;;;;;12.67;100.00;101493.97;10359035;28;20073;-81
2023/04/29 02:51:36;;;;;;;4.00;1.67;;;;;;;12.81;100.00;101496.94;10373686;28;20053;-81
2023/04/29 02:56:38;;;;;;;2.33;1.65;;;;;;;12.70;100.00;101505.25;10356272;28;20046;-81
2023/04/29 03:01:40;;;;;;;1.67;1.58;;;;;;;12.89;100.00;101521.28;10333902;28;20046;-81
2023/04/29 03:06:42;;;;;;;2.15;1.48;;;;;;;12.62;100.00;101522.28;10383664;28;20046;-82
2023/04/29 03:11:45;;;;;;;1.60;1.02;;;;;;;12.70;100.00;101522.50;10356692;28;20100;-82
2023/04/29 03:16:47;;;;;;;2.95;1.80;;;;;;;12.66;100.00;101529.28;10337368;28;20037;-82
2023/04/29 03:21:49;;;;;;;5.75;1.92;;;;;;;12.59;100.00;101529.97;10346667;28;20060;-82
2023/04/29 03:26:54;;;;;;;3.92;0.80;;;;;;;12.68;100.00;101532.81;10344455;28;20678;-81
2023/04/29 03:31:56;;;;;;;2.45;1.15;;;;;;;12.22;100.00;101531.50;10375113;28;20053;-82
2023/04/29 03:36:58;;;;;;;2.40;1.00;;;;;;;12.24;100.00;101544.44;10367855;28;20045;-81
2023/04/29 03:42:00;;;;;;;1.80;0.93;;;;;;;12.30;100.00;101539.47;10360912;28;20069;-81
2023/04/29 03:47:01;;;;;;;2.60;1.60;;;;;;;12.32;100.00;101543.84;10360096;28;20049;-81
2023/04/29 03:52:03;;;;;;;1.00;0.95;;;;;;;12.42;100.00;101551.84;10357288;28;20037;-81
2023/04/29 03:57:05;;;;;;;3.95;0.82;;;;;;;12.34;100.00;101562.00;10369879;28;20088;-82
2023/04/29 04:02:07;;;;;;;7.95;5.30;;;;;;;12.28;100.00;101561.81;10337390;28;20137;-81
2023/04/29 04:07:10;;;;;;;3.58;2.15;;;;;;;12.07;100.00;101570.66;10355634;28;20546;-81
2023/04/29 04:12:31;;;;;;;3.13;2.13;;;;;;;12.32;100.00;101579.13;10384496;28;20058;-80
2023/04/29 04:17:33;;;;;;;7.43;2.60;;;;;;;12.13;100.00;101588.03;10353927;28;20054;-81
2023/04/29 04:22:35;;;;;;;1.15;1.00;;;;;;;12.19;100.00;101588.22;10336908;28;20052;-81
2023/04/29 04:27:49;;;;;;;2.90;1.75;;;;;;;11.99;100.00;101597.97;10347449;28;20157;-81
2023/04/29 04:33:03;;;;;;;2.75;1.38;;;;;;;12.36;100.00;101606.84;10354170;28;20057;-81
2023/04/29 04:38:06;;;;;;;1.42;1.13;;;;;;;12.43;100.00;101607.88;10355228;28;20050;-80
2023/04/29 04:43:08;;;;;;;1.20;0.95;;;;;;;12.15;100.00;101617.38;10356014;28;20087;-81
2023/04/29 04:48:13;;;;;;;1.17;1.05;;;;;;;12.24;100.00;101622.84;10356814;28;20038;-81
2023/04/29 04:53:17;;;;;;;2.47;1.40;;;;;;;12.27;100.00;101633.25;10349870;28;20061;-81
2023/04/29 04:58:25;;;;;;;3.50;1.35;;;;;;;12.34;100.00;101635.19;10386007;28;20052;-82
2023/04/29 05:03:27;;;;;;;3.65;1.70;;;;;;;12.47;100.00;101646.78;10356279;28;20436;-81
2023/04/29 05:08:29;;;;;;;2.10;1.25;;;;;;;12.42;100.00;101642.31;10332395;28;20042;-82
2023/04/29 05:13:33;;;;;;;1.80;1.02;;;;;;;12.86;100.00;101645.31;10367437;28;20573;-81
2023/04/29 05:18:35;;;;;;;0.90;0.82;;;;;;;12.38;100.00;101659.44;10354370;28;20038;-81
2023/04/29 05:23:37;;;;;;;2.60;1.27;;;;;;;12.76;100.00;101664.00;10361602;28;20057;-82
2023/04/29 05:28:38;;;;;;;0.90;0.75;;;;;;;12.43;100.00;101664.75;10349537;28;20042;-81
2023/04/29 05:33:42;;;;;;;1.17;0.95;;;;;;;12.36;100.00;101674.88;10353638;28;20119;-82
2023/04/29 05:38:44;;;;;;;1.00;0.82;;;;;;;12.26;100.00;101679.72;10356587;28;20109;-81
2023/04/29 05:43:45;;;;;;;0.52;0.50;;;;;;;12.35;100.00;101685.19;10353050;28;20463;-81
2023/04/29 05:48:48;;;;;;;0.47;0.47;;;;;;;12.68;100.00;101687.03;10356667;28;20061;-81
2023/04/29 05:53:51;;;;;;;1.50;1.10;;;;;;;12.95;100.00;101702.47;10351924;28;20058;-82
2023/04/29 05:58:53;;;;;;;6.43;1.90;;;;;;;12.28;100.00;101707.34;10355113;28;20041;-81
2023/04/29 06:03:55;;;;;;;3.58;1.95;;;;;;;12.33;100.00;101708.38;10359473;28;20133;-81
2023/04/29 06:09:19;;;;;;;1.15;0.88;;;;;;;12.19;100.00;101714.81;10353876;28;20540;-81
2023/04/29 06:14:30;;;;;;;4.28;1.15;;;;;;;12.68;100.00;101723.22;10336103;28;20052;-83
2023/04/29 06:19:32;;;;;;;1.00;0.80;;;;;;;12.14;100.00;101730.16;10358556;28;20512;-81
2023/04/29 06:24:34;;;;;;;1.55;1.40;;;;;;;12.64;100.00;101737.75;10357937;28;20041;-81
2023/04/29 06:29:36;;;;;;;1.15;0.85;;;;;;;12.50;100.00;101739.03;10341631;28;20349;-81
2023/04/29 06:34:38;;;;;;;2.75;1.75;;;;;;;12.30;100.00;101747.06;10375857;28;20053;-82
2023/04/29 06:40:02;;;;;;;1.55;1.02;;;;;;;12.44;100.00;101754.38;10358950;28;20636;-81
2023/04/29 06:45:16;;;;;;;1.83;1.42;;;;;;;12.60;100.00;101761.78;10342679;28;20042;-81
2023/04/29 06:50:32;;;;;;;3.60;1.90;;;;;;;12.85;100.00;101772.84;10358810;28;20042;-82
2023/04/29 06:55:34;;;;;;;1.17;0.80;;;;;;;13.02;100.00;101776.84;10389964;28;20076;-81
2023/04/29 07:00:36;;;;;;;0.32;0.32;;;;;;;12.93;100.00;101786.91;10356386;28;20073;-81
2023/04/29 07:05:40;;;;;;;5.50;1.55;;;;;;;12.65;100.00;101796.41;10366763;28;20112;-82
2023/04/29 07:10:42;;;;;;;2.15;0.80;;;;;;;12.85;100.00;101790.97;10374911;28;20056;-81
2023/04/29 07:15:43;;;;;;;3.03;1.48;;;;;;;12.70;100.00;101792.25;10362830;28;20049;-81
2023/04/29 07:20:46;;;;;;;3.60;1.05;;;;;;;12.74;100.00;101810.44;10347983;28;20128;-81
2023/04/29 07:25:48;;;;;;;2.25;1.85;;;;;;;12.77;100.00;101826.06;10380085;28;20496;-80
2023/04/29 07:30:50;;;;;;;2.33;1.23;;;;;;;12.95;100.00;101831.81;10358958;28;20500;-81
2023/04/29 07:35:52;;;;;;;1.67;0.85;;;;;;;12.64;100.00;101836.00;10368403;28;20508;-80
2023/04/29 07:40:54;;;;;;;0.85;0.75;;;;;;;12.63;100.00;101841.13;10371071;28;20072;-80
2023/04/29 07:45:56;;;;;;;1.92;1.45;;;;;;;13.06;100.00;101854.56;10357881;28;20120;-79
2023/04/29 07:50:59;;;;;;;3.22;1.85;;;;;;;13.27;100.00;101860.38;10359025;28;20495;-81
2023/04/29 07:56:04;;;;;;;0.93;0.45;;;;;;;12.96;100.00;101864.59;10378680;28;20034;-80
2023/04/29 08:01:10;;;;;;;0.75;0.63;;;;;;;13.88;100.00;101868.19;10356842;28;20045;-81
2023/04/29 08:06:12;;;;;;;1.50;1.10;;;;;;;13.91;100.00;101880.34;10366681;28;20132;-82
2023/04/29 08:11:20;;;;;;;1.88;0.93;;;;;;;13.82;100.00;101880.94;10367339;28;20113;-80
2023/04/29 08:16:24;;;;;;;2.03;1.60;;;;;;;13.69;100.00;101884.03;10372862;28;20132;-81
2023/04/29 08:21:26;;;;;;;2.38;1.23;;;;;;;13.96;100.00;101895.16;10380744;28;20563;-80
2023/04/29 08:26:28;;;;;;;1.17;1.08;;;;;;;14.25;100.00;101887.34;10370287;28;20048;-81
2023/04/29 08:31:30;;;;;;;0.57;0.57;;;;;;;14.22;100.00;101901.94;10393095;28;20497;-81
2023/04/29 08:36:31;;;;;;;0.85;0.43;;;;;;;13.73;100.00;101909.22;10375543;28;20045;-81
2023/04/29 08:41:33;;;;;;;2.15;0.82;;;;;;;14.80;100.00;101907.75;10369608;28;20117;-80
2023/04/29 08:46:34;;;;;;;1.55;1.17;;;;;;;14.48;100.00;101914.69;10369228;28;20134;-81
2023/04/29 08:51:36;;;;;;;1.25;0.68;;;;;;;15.04;100.00;101914.38;10362772;28;20053;-80
2023/04/29 08:56:38;;;;;;;0.88;0.80;;;;;;;15.29;100.00;101917.53;10334010;28;20141;-82
2023/04/29 09:01:41;;;;;;;1.42;0.95;;;;;;;15.18;100.00;101922.50;10357195;28;20057;-81
2023/04/29 09:06:44;;;;;;;0.85;0.50;;;;;;;15.36;100.00;101919.44;10377975;28;20130;-81
2023/04/29 09:11:46;;;;;;;0.85;0.70;;;;;;;15.52;100.00;101918.94;10375759;28;20592;-81
2023/04/29 09:16:47;;;;;;;0.85;0.75;;;;;;;15.42;100.00;101929.06;10376249;28;20137;-81
2023/04/29 09:21:55;;;;;;;4.80;1.23;;;;;;;15.74;100.00;101929.78;10353024;28;20051;-80
2023/04/29 09:26:59;;;;;;;2.00;0.77;;;;;;;15.95;100.00;101926.75;10372885;28;20042;-80
2023/04/29 09:32:17;;;;;;;1.48;1.02;;;;;;;15.40;100.00;101926.44;10354469;28;20056;-81
2023/04/29 09:37:26;;;;;;;2.65;1.77;;;;;;;16.71;100.00;101930.75;10349386;28;20034;-80
2023/04/29 09:42:28;;;;;;;3.58;1.40;;;;;;;16.44;100.00;101931.16;10333863;28;20046;-80
2023/04/29 09:47:33;;;;;;;2.58;0.90;;;;;;;15.55;100.00;101942.34;10340926;28;20045;-82
2023/04/29 09:52:41;;;;;;;1.77;1.30;;;;;;;16.66;100.00;101942.78;10358411;28;20042;-81
2023/04/29 09:57:44;;;;;;;1.38;0.80;;;;;;;17.32;100.00;101950.81;10356109;28;20042;-81
2023/04/29 10:02:47;;;;;;;3.67;0.88;;;;;;;16.46;100.00;101950.25;10375751;28;20451;-82
2023/04/29 10:07:50;;;;;;;0.98;0.60;;;;;;;16.73;100.00;101947.25;10360465;28;20135;-81
2023/04/29 10:12:53;;;;;;;2.38;1.20;;;;;;;16.14;100.00;101959.19;10355707;28;20088;-81
2023/04/29 10:18:07;;;;;;;2.00;1.85;;;;;;;16.43;100.00;101956.25;10371030;28;20500;-80
2023/04/29 10:23:10;;;;;;;0.85;0.32;;;;;;;16.14;100.00;101954.00;10374818;28;20053;-80
2023/04/29 10:28:15;;;;;;;1.48;1.00;;;;;;;16.83;100.00;101939.59;10375094;28;20436;-81
2023/04/29 10:33:18;;;;;;;3.10;0.70;;;;;;;18.30;100.00;101945.13;10358346;28;20083;-81
2023/04/29 10:38:35;;;;;;;0.80;0.77;;;;;;;15.82;100.00;101956.78;10387410;28;20116;-80
2023/04/29 10:43:37;;;;;;;0.77;0.40;;;;;;;18.47;100.00;101942.66;10386992;28;20132;-81
2023/04/29 10:48:38;;;;;;;1.52;1.15;;;;;;;16.37;100.00;101956.16;10382463;28;20041;-81
2023/04/29 10:54:05;;;;;;;2.38;1.20;;;;;;;19.92;100.00;101937.59;10388469;28;20132;-82
2023/04/29 10:59:14;;;;;;;0.40;0.40;;;;;;;17.63;100.00;101948.63;10400796;28;20047;-81
2023/04/29 11:04:18;;;;;;;0.40;0.30;;;;;;;17.29;100.00;101956.00;10394641;28;20041;-81
2023/04/29 11:09:23;;;;;;;1.40;0.95;;;;;;;16.77;100.00;101966.41;10377654;28;20662;-82
2023/04/29 11:14:31;;;;;;;0.80;0.70;;;;;;;16.73;100.00;101965.47;10396539;28;20073;-84
2023/04/29 11:19:35;;;;;;;0.90;0.65;;;;;;;16.59;100.00;101966.94;10368828;28;20120;-84
2023/04/29 11:25:00;;;;;;;0.75;0.50;;;;;;;16.85;100.00;101969.16;10393361;28;20042;-81
2023/04/29 11:30:05;;;;;;;0.35;0.35;;;;;;;19.17;100.00;101951.13;10371824;28;20049;-81
2023/04/29 11:35:12;;;;;;;1.58;0.90;;;;;;;17.98;100.00;101963.91;10377028;28;20447;-81
2023/04/29 11:40:14;;;;;;;0.85;0.70;;;;;;;17.06;100.00;101960.81;10374380;28;20405;-83
2023/04/29 11:45:17;;;;;;;0.57;0.55;;;;;;;18.41;100.00;101962.63;10388183;28;20049;-82
2023/04/29 11:50:19;;;;;;;1.33;1.23;;;;;;;19.01;100.00;101961.47;10381604;28;20045;-83
2023/04/29 11:55:21;;;;;;;0.20;0.20;;;;;;;18.08;100.00;101970.97;10373952;28;20097;-81
2023/04/29 12:00:23;;;;;;;0.93;0.43;;;;;;;18.01;100.00;101971.75;10356790;28;20104;-81
2023/04/29 12:05:25;;;;;;;0.30;0.30;;;;;;;17.60;100.00;101972.06;10385024;28;20048;-83
2023/04/29 12:10:27;;;;;;;0.57;0.35;;;;;;;17.72;100.00;101972.22;10369443;28;20077;-82
2023/04/29 12:15:30;;;;;;;0.17;0.17;;;;;;;19.26;100.00;101961.63;10361472;28;20073;-82
2023/04/29 12:20:31;;;;;;;0.40;0.30;;;;;;;18.84;100.00;101968.25;10356795;28;20423;-80
2023/04/29 12:25:33;;;;;;;4.68;2.53;;;;;;;19.07;100.00;101970.19;10351273;28;20067;-80
2023/04/29 12:30:36;;;;;;;0.80;0.40;;;;;;;18.60;100.00;101971.50;10346999;28;20046;-81
2023/04/29 12:35:38;;;;;;;0.43;0.30;;;;;;;18.16;100.00;101973.69;10369443;28;20355;-81
2023/04/29 12:40:39;;;;;;;0.73;0.50;;;;;;;18.32;100.00;101979.94;10370024;28;20049;-80
2023/04/29 12:45:41;;;;;;;0.52;0.15;;;;;;;20.81;100.00;101964.84;10363718;28;20076;-81
2023/04/29 12:50:48;;;;;;;0.25;0.20;;;;;;;19.60;100.00;101956.59;10374089;28;20045;-80
2023/04/29 12:55:50;;;;;;;0.20;0.20;;;;;;;19.19;100.00;101965.06;10373169;28;20131;-81
2023/04/29 13:00:51;;;;;;;0.57;0.40;;;;;;;18.26;100.00;101966.81;10356218;28;20077;-80
2023/04/29 13:05:53;;;;;;;0.57;0.38;;;;;;;17.80;100.00;101966.22;10369455;28;20508;-81
2023/04/29 13:10:55;;;;;;;0.90;0.40;;;;;;;19.57;100.00;101953.97;10352292;28;20047;-83
2023/04/29 13:15:57;;;;;;;0.32;0.30;;;;;;;19.23;100.00;101963.34;10371751;28;20040;-81
2023/04/29 13:20:58;;;;;;;0.47;0.45;;;;;;;20.37;99.91;101955.13;10364484;28;20148;-82
2023/04/29 13:26:04;;;;;;;0.75;0.38;;;;;;;19.48;100.00;101961.75;10358071;28;20072;-81
2023/04/29 13:31:05;;;;;;;1.08;0.65;;;;;;;19.97;94.53;101963.75;10384197;28;20116;-84
2023/04/29 13:36:07;;;;;;;0.10;0.10;;;;;;;22.14;88.01;101956.63;10357025;28;20132;-82
2023/04/29 13:41:08;;;;;;;0.85;0.32;;;;;;;19.95;91.55;101966.38;10375485;28;20045;-81
2023/04/29 13:46:17;;;;;;;0.15;0.13;;;;;;;20.02;93.02;101963.78;10372324;28;20112;-82
2023/04/29 13:51:21;;;;;;;0.45;0.10;;;;;;;19.94;90.57;101967.25;10388965;28;20133;-83
2023/04/29 13:56:42;;;;;;;0.90;0.82;;;;;;;19.91;90.71;101962.00;10375040;28;20042;-81
2023/04/29 14:02:04;;;;;;;0.22;0.20;;;;;;;19.37;97.65;101971.28;10376880;28;20042;-82
2023/04/29 14:07:08;;;;;;;0.60;0.15;;;;;;;19.80;91.44;101969.78;10385372;28;20088;-81
2023/04/29 14:12:10;;;;;;;0.30;0.22;;;;;;;18.35;99.22;101985.19;10396472;28;20726;-87
2023/04/29 14:17:12;;;;;;;0.00;0.00;;;;;;;20.02;91.33;101976.84;10359229;28;20124;-86
2023/04/29 14:22:13;;;;;;;1.63;0.47;;;;;;;19.31;97.37;101988.66;10372001;28;20055;-87
2023/04/29 14:27:15;;;;;;;0.30;0.30;;;;;;;19.00;95.25;101990.16;10363172;28;20164;-83
2023/04/29 14:32:16;;;;;;;1.00;0.60;;;;;;;19.48;98.83;101985.28;10382418;28;20137;-84
2023/04/29 14:37:18;;;;;;;0.28;0.20;;;;;;;18.96;94.98;101994.47;10371694;28;20556;-83
2023/04/29 14:42:19;;;;;;;0.10;0.10;;;;;;;18.38;98.43;102000.84;10394970;28;20133;-83
2023/04/29 14:47:21;;;;;;;0.88;0.30;;;;;;;18.71;100.00;101993.34;10394957;28;20128;-84
2023/04/29 14:52:22;;;;;;;0.20;0.20;;;;;;;19.30;95.65;101993.88;10379009;28;20049;-81
2023/04/29 14:57:24;;;;;;;0.30;0.25;;;;;;;19.21;92.32;101997.28;10361124;28;20580;-82
2023/04/29 15:02:25;;;;;;;0.08;0.08;;;;;;;18.79;91.41;102004.75;10345561;28;20042;-80
2023/04/29 15:07:27;;;;;;;0.10;0.10;;;;;;;18.21;92.51;102013.72;10344903;28;20113;-81
2023/04/29 15:12:32;;;;;;;1.02;0.30;;;;;;;18.32;95.25;102011.22;10375837;28;20034;-80
2023/04/29 15:17:33;;;;;;;0.28;0.28;;;;;;;18.11;95.96;102011.84;10369326;28;20121;-81
2023/04/29 15:22:35;;;;;;;0.45;0.30;;;;;;;18.63;93.12;102013.28;10366904;28;20586;-81
2023/04/29 15:27:37;;;;;;;0.30;0.28;;;;;;;18.38;92.68;102008.69;10379302;28;20049;-81
2023/04/29 15:32:39;;;;;;;1.17;0.57;;;;;;;18.35;97.71;102011.28;10371360;28;20616;-80
2023/04/29 15:37:40;;;;;;;0.10;0.10;;;;;;;18.47;100.00;102009.66;10374392;28;20520;-80
2023/04/29 15:42:42;;;;;;;0.30;0.22;;;;;;;18.74;97.50;102009.06;10372772;28;20120;-82
2023/04/29 15:47:43;;;;;;;0.32;0.32;;;;;;;18.51;98.44;102019.25;10348629;28;20057;-83
2023/04/29 15:52:45;;;;;;;0.10;0.10;;;;;;;17.65;96.01;102027.72;10362434;28;20447;-83
2023/04/29 15:57:46;;;;;;;0.40;0.13;;;;;;;18.29;95.60;102026.84;10360553;28;20072;-83
2023/04/29 16:02:57;;;;;;;0.20;0.20;;;;;;;18.02;96.06;102028.25;10343029;28;20172;-86
2023/04/29 16:07:59;;;;;;;0.05;0.05;;;;;;;19.36;95.28;102024.41;10351797;28;20069;-87
2023/04/29 16:13:01;;;;;;;0.15;0.15;;;;;;;18.42;96.43;102037.44;10363408;28;20096;-84
2023/04/29 16:18:03;;;;;;;0.38;0.20;;;;;;;18.24;94.42;102046.78;10364922;28;20122;-83
2023/04/29 16:23:04;;;;;;;0.38;0.17;;;;;;;17.69;96.93;102039.94;10351361;28;20048;-84
2023/04/29 16:28:06;;;;;;;0.22;0.13;;;;;;;17.88;99.18;102048.03;10347212;28;20042;-84
2023/04/29 16:33:08;;;;;;;0.10;0.10;;;;;;;17.42;100.00;102046.50;10326990;28;20050;-84
2023/04/29 16:38:10;;;;;;;0.30;0.20;;;;;;;17.42;99.46;102051.69;10355374;28;20046;-84
2023/04/29 16:43:14;;;;;;;0.43;0.40;;;;;;;17.10;99.75;102052.03;10379746;28;20083;-85
2023/04/29 16:48:15;;;;;;;0.30;0.20;;;;;;;17.10;99.83;102054.63;10352832;28;20773;-84
2023/04/29 16:53:17;;;;;;;0.10;0.00;;;;;;;17.36;99.23;102051.59;10362170;28;20520;-84
2023/04/29 16:58:18;;;;;;;0.10;0.10;;;;;;;17.89;96.80;102052.38;10377829;28;20099;-83
2023/04/29 17:03:20;;;;;;;0.00;0.00;;;;;;;18.54;98.48;102058.44;10369472;28;20508;-85
2023/04/29 17:08:22;;;;;;;0.10;0.10;;;;;;;18.95;98.83;102049.31;10378996;28;20141;-85
2023/04/29 17:13:24;;;;;;;0.50;0.30;;;;;;;18.23;97.90;102052.84;10388988;28;20506;-85
2023/04/29 17:18:26;;;;;;;0.63;0.38;;;;;;;18.08;100.00;102049.19;10355171;28;20061;-87
2023/04/29 17:23:29;;;;;;;0.20;0.20;;;;;;;17.66;100.00;102055.53;10344710;28;20069;-86
2023/04/29 17:28:31;;;;;;;0.00;0.00;;;;;;;18.01;98.40;102056.94;10349971;28;20061;-84
2023/04/29 17:33:33;;;;;;;0.20;0.20;;;;;;;17.70;98.76;102057.31;10335052;28;20131;-85
2023/04/29 17:38:35;;;;;;;0.25;0.25;;;;;;;17.53;94.16;102069.25;10337062;28;20042;-85
2023/04/29 17:43:36;;;;;;;0.20;0.20;;;;;;;17.11;97.06;102061.59;10344006;28;20480;-82
2023/04/29 17:48:38;;;;;;;1.27;0.20;;;;;;;17.79;94.67;102066.13;10361590;28;20492;-83
2023/04/29 17:53:39;;;;;;;0.98;0.38;;;;;;;17.18;96.28;102078.22;10359394;28;20485;-83
2023/04/29 17:58:41;;;;;;;0.95;0.38;;;;;;;17.05;97.99;102087.53;10371149;28;20054;-80
2023/04/29 18:03:43;;;;;;;0.93;0.32;;;;;;;16.42;100.00;102094.97;10348477;28;20133;-81
2023/04/29 18:08:47;;;;;;;0.17;0.17;;;;;;;16.28;100.00;102096.41;10362628;28;20125;-82
2023/04/29 18:13:51;;;;;;;0.10;0.10;;;;;;;16.24;100.00;102102.38;10398071;28;20042;-83
2023/04/29 18:18:53;;;;;;;0.00;0.00;;;;;;;16.09;100.00;102097.72;10374632;28;20131;-84
2023/04/29 18:23:57;;;;;;;0.00;0.00;;;;;;;16.17;100.00;102099.66;10372254;28;20050;-84
2023/04/29 18:28:59;;;;;;;0.00;0.00;;;;;;;15.61;100.00;102112.16;10359574;28;20236;-84
2023/04/29 18:34:00;;;;;;;0.45;0.10;;;;;;;15.42;100.00;102121.22;10367593;28;20042;-83
2023/04/29 18:39:02;;;;;;;0.38;0.25;;;;;;;15.28;100.00;102118.28;10364698;28;20065;-83
2023/04/29 18:44:03;;;;;;;0.75;0.45;;;;;;;14.87;100.00;102127.59;10348243;28;20042;-85
2023/04/29 18:49:05;;;;;;;0.00;0.00;;;;;;;15.02;100.00;102121.97;10355035;28;20038;-84
2023/04/29 18:54:06;;;;;;;0.00;0.00;;;;;;;15.10;100.00;102129.94;10371111;28;20045;-85
2023/04/29 18:59:08;;;;;;;0.38;0.38;;;;;;;15.63;100.00;102120.88;10373612;28;20038;-82
2023/04/29 19:04:10;;;;;;;0.82;0.20;;;;;;;15.55;100.00;102131.09;10348802;28;20125;-84
2023/04/29 19:09:12;;;;;;;0.00;0.00;;;;;;;15.70;100.00;102133.19;10366905;28;20050;-81
2023/04/29 19:14:14;;;;;;;0.00;0.00;;;;;;;15.54;100.00;102148.38;10381102;28;20539;-82
2023/04/29 19:19:15;;;;;;;0.00;0.00;;;;;;;14.90;100.00;102156.22;10375872;28;20427;-82
2023/04/29 19:24:17;;;;;;;0.15;0.08;;;;;;;14.89;100.00;102162.25;10375709;28;20042;-81
2023/04/29 19:29:19;;;;;;;0.20;0.10;;;;;;;14.89;100.00;102166.56;10381469;28;20049;-82
2023/04/29 19:34:20;;;;;;;0.25;0.15;;;;;;;14.84;100.00;102178.50;10364053;28;20104;-81
2023/04/29 19:39:22;;;;;;;0.00;0.00;;;;;;;14.62;100.00;102177.00;10380860;28;20042;-81
2023/04/29 19:44:23;;;;;;;0.00;0.00;;;;;;;14.38;100.00;102183.19;10344114;28;20053;-81
2023/04/29 19:49:25;;;;;;;0.25;0.13;;;;;;;13.95;100.00;102183.59;10358812;28;20050;-81
2023/04/29 19:54:27;;;;;;;1.55;0.50;;;;;;;13.91;100.00;102186.91;10371109;28;20077;-82
2023/04/29 19:59:28;;;;;;;0.30;0.30;;;;;;;14.05;100.00;102194.25;10389284;28;20049;-79
2023/04/29 20:04:30;;;;;;;0.10;0.10;;;;;;;13.84;100.00;102195.31;10380674;28;20157;-81
2023/04/29 20:09:32;;;;;;;0.60;0.38;;;;;;;13.62;100.00;102209.25;10381102;28;20045;-79
2023/04/29 20:14:33;;;;;;;1.00;0.43;;;;;;;13.51;100.00;102216.66;10376419;28;20049;-80
2023/04/29 20:19:35;;;;;;;0.88;0.82;;;;;;;13.57;100.00;102211.69;10389285;28;20136;-79
2023/04/29 20:24:36;;;;;;;0.77;0.68;;;;;;;13.44;100.00;102219.88;10366959;28;20747;-79
2023/04/29 20:29:38;;;;;;;0.65;0.63;;;;;;;13.25;100.00;102239.00;10392998;28;20048;-80
2023/04/29 20:34:40;;;;;;;0.75;0.30;;;;;;;13.28;100.00;102239.09;10369240;28;20057;-81
2023/04/29 20:39:42;;;;;;;0.20;0.20;;;;;;;12.93;100.00;102247.31;10382799;28;20706;-81
2023/04/29 20:44:43;;;;;;;0.10;0.10;;;;;;;12.81;100.00;102254.63;10386323;28;20080;-81
2023/04/29 20:49:45;;;;;;;0.30;0.30;;;;;;;12.84;100.00;102263.38;10370783;28;20072;-81
2023/04/29 20:54:46;;;;;;;0.50;0.32;;;;;;;12.85;100.00;102261.66;10383712;28;20050;-81
2023/04/29 20:59:48;;;;;;;0.57;0.30;;;;;;;12.85;100.00;102264.25;10383165;28;20185;-81
2023/04/29 21:04:49;;;;;;;0.40;0.40;;;;;;;12.83;100.00;102273.66;10388371;28;20055;-79
2023/04/29 21:09:51;;;;;;;0.73;0.38;;;;;;;12.64;100.00;102275.53;10382107;28;20042;-80
2023/04/29 21:14:53;;;;;;;0.00;0.00;;;;;;;12.37;100.00;102290.81;10379166;28;20045;-80
2023/04/29 21:19:55;;;;;;;0.13;0.10;;;;;;;12.58;100.00;102277.88;10394475;28;20692;-80
2023/04/29 21:24:56;;;;;;;0.22;0.20;;;;;;;12.57;100.00;102289.03;10395141;28;20051;-81
2023/04/29 21:29:58;;;;;;;0.20;0.20;;;;;;;11.97;100.00;102302.94;10393970;28;20037;-79
2023/04/29 21:34:59;;;;;;;0.30;0.30;;;;;;;12.13;100.00;102291.59;10399248;28;20555;-80
2023/04/29 21:40:03;;;;;;;0.00;0.00;;;;;;;12.24;100.00;102298.88;10379806;28;20057;-82
2023/04/29 21:45:05;;;;;;;1.38;0.45;;;;;;;11.61;100.00;102297.06;10378071;28;20037;-80
2023/04/29 21:50:08;;;;;;;0.38;0.10;;;;;;;11.80;100.00;102299.63;10387783;28;20144;-82
2023/04/29 21:55:09;;;;;;;0.17;0.17;;;;;;;11.58;100.00;102308.09;10355026;28;20056;-82
2023/04/29 22:00:27;;;;;;;0.82;0.50;;;;;;;11.87;100.00;102303.38;10385214;28;20084;-82
2023/04/29 22:05:30;;;;;;;0.40;0.40;;;;;;;11.55;100.00;102315.72;10361871;28;20053;-81
2023/04/29 22:10:32;;;;;;;0.10;0.10;;;;;;;11.36;100.00;102320.06;10381645;28;20527;-81
2023/04/29 22:15:33;;;;;;;0.40;0.20;;;;;;;11.49;100.00;102315.47;10367545;28;20037;-81
2023/04/29 22:20:35;;;;;;;1.27;0.55;;;;;;;11.55;100.00;102323.47;10391617;28;20080;-80
2023/04/29 22:25:37;;;;;;;0.20;0.15;;;;;;;11.34;100.00;102320.78;10393561;28;20092;-82
2023/04/29 22:30:38;;;;;;;0.55;0.50;;;;;;;11.55;100.00;102321.75;10386510;28;20041;-82
2023/04/29 22:35:40;;;;;;;0.00;0.00;;;;;;;11.70;100.00;102331.91;10378639;28;20503;-80
2023/04/29 22:40:48;;;;;;;0.10;0.10;;;;;;;12.05;100.00;102330.00;10399155;28;20073;-81
2023/04/29 22:45:53;;;;;;;0.00;0.00;;;;;;;11.99;100.00;102337.47;10389481;28;20129;-79
2023/04/29 22:50:58;;;;;;;0.00;0.00;;;;;;;10.29;100.00;102347.63;10380808;28;20475;-80
2023/04/29 22:56:00;;;;;;;0.95;0.65;;;;;;;11.05;100.00;102331.56;10373337;28;20056;-80
2023/04/29 23:01:02;;;;;;;0.00;0.00;;;;;;;10.75;100.00;102349.91;10379122;28;20157;-81
2023/04/29 23:06:04;;;;;;;0.43;0.20;;;;;;;10.68;100.00;102342.69;10383757;28;20404;-80